createdAt,value
2023-04-02T00:03:42.607Z,69.92
2023-04-02T00:08:46.290Z,70.02
2023-04-02T00:13:49.523Z,69.71
2023-04-02T00:18:56.532Z,69.63
2023-04-02T00:24:01.476Z,69.46
2023-04-02T00:29:07.342Z,69.16
2023-04-02T00:34:18.640Z,69.20
2023-04-02T00:39:27.425Z,69.21
2023-04-02T00:44:33.224Z,69.12
2023-04-02T00:49:39.950Z,69.10
2023-04-02T00:54:51.169Z,68.91
2023-04-02T00:59:58.202Z,68.69
2023-04-02T01:05:23.712Z,68.49
2023-04-02T01:10:54.315Z,68.40
2023-04-02T01:16:22.119Z,68.51
2023-04-02T01:21:33.945Z,68.57
2023-04-02T01:27:02.422Z,68.66
2023-04-02T01:32:11.962Z,68.70
2023-04-02T01:37:39.433Z,68.61
2023-04-02T01:43:16.032Z,68.55
2023-04-02T01:48:24.930Z,68.28
2023-04-02T01:53:31.022Z,68.06
2023-04-02T01:58:34.805Z,68.03
2023-04-02T02:03:42.873Z,67.92
2023-04-02T02:08:59.473Z,67.95
2023-04-02T02:14:17.812Z,67.85
2023-04-02T02:19:38.432Z,67.64
2023-04-02T02:24:42.696Z,67.57
2023-04-02T02:29:49.618Z,67.58
2023-04-02T02:35:02.351Z,67.70
2023-04-02T02:40:13.260Z,67.62
2023-04-02T02:45:22.982Z,67.54
2023-04-02T02:50:32.844Z,67.60
2023-04-02T02:55:38.831Z,67.62
2023-04-02T03:00:50.486Z,67.57
2023-04-02T03:05:58.070Z,67.53
2023-04-02T03:11:02.339Z,67.67
2023-04-02T03:16:12.132Z,67.80
2023-04-02T03:21:29.275Z,67.92
2023-04-02T03:26:49.463Z,67.88
2023-04-02T03:32:12.283Z,67.84
2023-04-02T03:37:32.034Z,67.75
2023-04-02T03:43:00.196Z,67.67
2023-04-02T03:48:24.278Z,67.56
2023-04-02T03:53:29.851Z,67.64
2023-04-02T03:58:47.246Z,67.49
2023-04-02T04:03:55.640Z,67.55
2023-04-02T04:09:01.295Z,67.55
2023-04-02T04:14:18.439Z,67.65
2023-04-02T04:19:24.905Z,67.73
2023-04-02T04:24:28.616Z,67.90
2023-04-02T04:29:53.710Z,67.77
2023-04-02T04:35:21.742Z,67.64
2023-04-02T04:40:45.072Z,67.60
2023-04-02T04:46:00.264Z,67.40
2023-04-02T04:51:08.917Z,67.54
2023-04-02T04:56:19.329Z,67.61
2023-04-02T05:01:39.155Z,67.62
2023-04-02T05:06:55.559Z,67.76
2023-04-02T05:12:16.376Z,67.81
2023-04-02T05:17:27.571Z,68.14
2023-04-02T05:22:44.325Z,67.77
2023-04-02T05:34:05.300Z,67.29
2023-04-02T05:39:11.265Z,67.34
2023-04-02T05:44:27.236Z,67.44
2023-04-02T05:49:58.649Z,67.59
2023-04-02T05:55:11.606Z,67.80
2023-04-02T06:00:43.691Z,67.87
2023-04-02T06:05:48.333Z,67.80
2023-04-02T06:10:55.572Z,68.00
2023-04-02T06:16:01.720Z,68.11
2023-04-02T06:21:14.487Z,68.21
2023-04-02T06:26:34.057Z,68.34
2023-04-02T06:31:57.482Z,68.65
2023-04-02T06:37:12.067Z,68.33
2023-04-02T06:42:21.958Z,68.40
2023-04-02T06:47:42.727Z,68.27
2023-04-02T06:52:56.701Z,68.05
2023-04-02T06:58:00.658Z,67.99
2023-04-02T07:03:13.716Z,67.84
2023-04-02T07:08:17.244Z,67.54
2023-04-02T07:13:22.817Z,67.35
2023-04-02T07:18:31.225Z,67.07
2023-04-02T07:23:36.292Z,67.20
2023-04-02T07:28:39.593Z,66.91
2023-04-02T07:33:42.861Z,66.90
2023-04-02T07:38:46.572Z,66.82
2023-04-02T07:43:49.792Z,67.35
2023-04-02T07:48:53.042Z,67.39
2023-04-02T07:53:58.616Z,67.00
2023-04-02T07:59:02.225Z,66.83
2023-04-02T08:04:08.116Z,66.74
2023-04-02T08:09:11.628Z,66.74
2023-04-02T08:14:14.997Z,66.56
2023-04-02T08:19:19.173Z,66.57
2023-04-02T08:24:22.956Z,66.63
2023-04-02T08:29:26.196Z,66.71
2023-04-02T08:34:32.401Z,66.70
2023-04-02T08:39:35.667Z,65.71
2023-04-02T08:44:41.992Z,65.69
2023-04-02T08:49:53.882Z,66.26
2023-04-02T08:54:58.420Z,66.39
2023-04-02T09:00:15.982Z,66.33
2023-04-02T09:05:27.111Z,66.01
2023-04-02T09:10:42.721Z,66.68
2023-04-02T09:15:46.150Z,66.70
2023-04-02T09:20:50.430Z,66.55
2023-04-02T09:26:04.127Z,66.67
2023-04-02T09:31:41.045Z,66.23
2023-04-02T09:36:44.906Z,66.48
2023-04-02T09:41:58.990Z,66.72
2023-04-02T09:47:26.522Z,66.75
2023-04-02T09:52:37.381Z,66.77
2023-04-02T09:57:40.700Z,66.55
2023-04-02T10:02:46.943Z,66.81
2023-04-02T10:07:55.933Z,67.04
2023-04-02T10:13:07.102Z,67.28
2023-04-02T10:18:21.910Z,68.14
2023-04-02T10:23:29.526Z,67.08
2023-04-02T10:28:57.808Z,67.05
2023-04-02T10:34:06.535Z,66.93
2023-04-02T10:39:15.109Z,66.66
2023-04-02T10:44:30.005Z,66.36
2023-04-02T10:49:56.076Z,65.74
2023-04-02T10:55:21.052Z,65.56
2023-04-02T11:00:38.349Z,65.74
2023-04-02T11:05:53.653Z,66.06
2023-04-02T11:11:31.149Z,65.26
2023-04-02T11:16:36.159Z,65.02
2023-04-02T11:21:57.875Z,64.06
2023-04-02T11:27:18.995Z,64.33
2023-04-02T11:32:24.330Z,64.72
2023-04-02T11:37:34.992Z,65.46
2023-04-02T11:42:45.584Z,65.61
2023-04-02T11:48:13.690Z,65.19
2023-04-02T11:53:21.484Z,64.67
2023-04-02T11:58:33.549Z,65.78
2023-04-02T12:04:03.896Z,64.93
2023-04-02T12:09:23.911Z,64.53
2023-04-02T12:14:35.727Z,64.35
2023-04-02T12:19:39.686Z,64.58
2023-04-02T12:24:43.204Z,64.88
2023-04-02T12:29:47.274Z,64.33
2023-04-02T12:34:52.238Z,65.39
2023-04-02T12:40:16.101Z,65.37
2023-04-02T12:45:33.431Z,65.06
2023-04-02T12:50:36.857Z,64.54
2023-04-02T12:55:48.256Z,65.32
2023-04-02T13:00:51.574Z,65.36
2023-04-02T13:05:57.574Z,66.22
2023-04-02T13:11:02.167Z,66.80
2023-04-02T13:16:26.404Z,66.02
2023-04-02T13:21:32.239Z,65.38
2023-04-02T13:26:35.449Z,65.41
2023-04-02T13:31:38.712Z,65.95
2023-04-02T13:36:41.880Z,66.50
2023-04-02T13:41:51.618Z,66.67
2023-04-02T13:46:55.900Z,66.72
2023-04-02T13:52:03.372Z,66.41
2023-04-02T13:57:07.658Z,66.59
2023-04-02T14:02:24.664Z,65.78
2023-04-02T14:07:34.170Z,64.45
2023-04-02T14:13:10.775Z,64.06
2023-04-02T14:18:22.736Z,63.95
2023-04-02T14:23:38.573Z,64.45
2023-04-02T14:28:57.799Z,65.19
2023-04-02T14:34:41.809Z,64.47
2023-04-02T14:39:47.641Z,64.03
2023-04-02T14:44:58.273Z,64.13
2023-04-02T14:50:13.888Z,64.85
2023-04-02T14:55:42.625Z,64.28
2023-04-02T15:00:56.214Z,64.08
2023-04-02T15:06:04.863Z,63.82
2023-04-02T15:11:16.505Z,63.93
2023-04-02T15:16:23.305Z,64.18
2023-04-02T15:21:29.551Z,64.09
2023-04-02T15:26:49.885Z,64.18
2023-04-02T15:31:58.299Z,64.35
2023-04-02T15:37:29.927Z,64.82
2023-04-02T15:43:19.852Z,65.01
2023-04-02T15:48:47.135Z,64.73
2023-04-02T15:54:33.874Z,64.15
2023-04-02T15:59:52.010Z,64.18
2023-04-02T16:05:01.275Z,64.22
2023-04-02T16:10:37.925Z,64.49
2023-04-02T16:15:51.061Z,64.33
2023-04-02T16:20:57.309Z,64.36
2023-04-02T16:26:13.308Z,64.68
2023-04-02T16:31:40.636Z,66.12
2023-04-02T16:36:45.328Z,64.23
2023-04-02T16:42:15.778Z,63.94
2023-04-02T16:48:10.251Z,63.93
2023-04-02T16:53:17.526Z,63.64
2023-04-02T16:58:32.014Z,63.88
2023-04-02T17:04:02.993Z,63.95
2023-04-02T17:09:26.375Z,64.01
2023-04-02T17:14:41.209Z,63.64
2023-04-02T17:19:45.022Z,63.92
2023-04-02T17:24:55.021Z,63.98
2023-04-02T17:30:12.705Z,63.63
2023-04-02T17:35:44.043Z,63.16
2023-04-02T17:41:02.598Z,62.87
2023-04-02T17:46:18.222Z,62.48
2023-04-02T17:51:45.575Z,62.42
2023-04-02T17:57:29.945Z,63.15
2023-04-02T18:02:57.525Z,63.20
2023-04-02T18:08:27.632Z,63.64
2023-04-02T18:13:36.430Z,63.75
2023-04-02T18:18:48.722Z,62.75
2023-04-02T18:24:35.240Z,62.54
2023-04-02T18:29:50.757Z,62.70
2023-04-02T18:34:57.191Z,62.53
2023-04-02T18:40:39.413Z,63.03
2023-04-02T18:46:00.551Z,62.71
2023-04-02T18:51:06.517Z,63.12
2023-04-02T18:56:16.375Z,63.23
2023-04-02T19:07:15.684Z,63.46
2023-04-02T19:12:22.396Z,63.66
2023-04-02T19:24:15.914Z,63.84
2023-04-02T19:29:39.720Z,63.90
2023-04-02T19:35:03.467Z,63.66
2023-04-02T19:40:06.831Z,63.62
2023-04-02T19:45:36.023Z,63.46
2023-04-02T19:50:39.941Z,63.63
2023-04-02T19:55:44.159Z,63.62
2023-04-02T20:00:47.593Z,63.45
2023-04-02T20:05:51.371Z,63.48
2023-04-02T20:11:24.087Z,63.28
2023-04-02T20:16:27.703Z,63.55
2023-04-02T20:21:38.430Z,63.52
2023-04-02T20:26:41.844Z,64.14
2023-04-02T20:31:45.365Z,64.38
2023-04-02T20:36:48.672Z,64.43
2023-04-02T20:41:51.973Z,64.78
2023-04-02T20:47:12.492Z,64.77
2023-04-02T20:52:16.069Z,64.64
2023-04-02T20:57:22.165Z,64.66
2023-04-02T21:02:25.680Z,64.73
2023-04-02T21:07:29.263Z,65.11
2023-04-02T21:12:32.808Z,65.41
2023-04-02T21:17:36.190Z,65.59
2023-04-02T21:22:39.484Z,65.57
2023-04-02T21:27:42.826Z,65.56
2023-04-02T21:32:46.138Z,65.56
2023-04-02T21:37:49.394Z,65.38
2023-04-02T21:42:54.884Z,65.64
2023-04-02T21:47:58.360Z,65.76
2023-04-02T21:53:01.822Z,65.81
2023-04-02T21:58:05.492Z,66.25
2023-04-02T22:03:10.164Z,66.33
2023-04-02T22:08:15.168Z,66.56
2023-04-02T22:13:19.187Z,66.79
2023-04-02T22:18:22.628Z,66.96
2023-04-02T22:23:27.916Z,66.78
2023-04-02T22:28:31.729Z,66.79
2023-04-02T22:33:35.894Z,66.56
2023-04-02T22:38:54.759Z,66.46
2023-04-02T22:43:59.832Z,66.18
2023-04-02T22:49:03.671Z,66.32
2023-04-02T22:54:07.177Z,66.70
2023-04-02T22:59:10.611Z,66.64
2023-04-02T23:04:14.050Z,66.70
2023-04-02T23:09:17.539Z,66.68
2023-04-02T23:14:21.586Z,66.88
2023-04-02T23:19:24.950Z,66.83
2023-04-02T23:24:28.271Z,66.80
2023-04-02T23:29:31.600Z,66.91
2023-04-02T23:34:34.907Z,66.73
2023-04-02T23:39:38.603Z,66.58
2023-04-02T23:44:41.947Z,66.38
2023-04-02T23:49:48.026Z,66.05
2023-04-02T23:54:51.413Z,66.27
2023-04-02T23:59:54.795Z,66.46
